createdAt,value
2022-11-24T00:02:02.226Z,100177.78
2022-11-24T00:05:04.183Z,100181.44
2022-11-24T00:08:05.687Z,100190.22
2022-11-24T00:11:10.555Z,100181.38
2022-11-24T00:14:12.407Z,100184.91
2022-11-24T00:17:13.877Z,100187.81
2022-11-24T00:20:15.614Z,100189.53
2022-11-24T00:23:17.104Z,100195.31
2022-11-24T00:26:30.203Z,100197.94
2022-11-24T00:29:31.670Z,100190.81
2022-11-24T00:32:33.113Z,100189.94
2022-11-24T00:35:34.568Z,100190.97
2022-11-24T00:38:36.009Z,100193.59
2022-11-24T00:41:38.218Z,100205.03
2022-11-24T00:44:39.909Z,100201.69
2022-11-24T00:47:41.364Z,100210.41
2022-11-24T00:50:42.817Z,100219.00
2022-11-24T00:53:44.791Z,100214.69
2022-11-24T00:56:46.222Z,100209.44
2022-11-24T00:59:47.719Z,100216.56
2022-11-24T01:02:49.194Z,100216.66
2022-11-24T01:05:50.678Z,100211.44
2022-11-24T01:08:52.350Z,100222.09
2022-11-24T01:11:53.795Z,100218.53
2022-11-24T01:14:55.259Z,100215.84
2022-11-24T01:17:57.403Z,100218.44
2022-11-24T01:20:58.992Z,100234.22
2022-11-24T01:24:00.448Z,100229.75
2022-11-24T01:27:01.943Z,100232.38
2022-11-24T01:30:04.594Z,100228.75
2022-11-24T01:33:06.030Z,100230.66
2022-11-24T01:36:07.567Z,100234.94
2022-11-24T01:39:09.042Z,100238.28
2022-11-24T01:42:10.582Z,100246.09
2022-11-24T01:45:36.755Z,100237.41
2022-11-24T01:48:43.097Z,100251.19
2022-11-24T01:52:00.960Z,100262.59
2022-11-24T01:55:08.142Z,100261.63
2022-11-24T01:58:30.788Z,100263.50
2022-11-24T02:01:32.433Z,100265.22
2022-11-24T02:04:35.711Z,100255.44
2022-11-24T02:07:37.776Z,100257.06
2022-11-24T02:10:39.363Z,100262.13
2022-11-24T02:13:42.212Z,100269.91
2022-11-24T02:16:48.960Z,100267.34
2022-11-24T02:19:56.401Z,100287.25
2022-11-24T02:23:23.389Z,100287.25
2022-11-24T02:26:36.427Z,100290.84
2022-11-24T02:29:38.230Z,100289.94
2022-11-24T02:32:41.839Z,100297.88
2022-11-24T02:35:43.353Z,100300.56
2022-11-24T02:38:44.826Z,100301.72
2022-11-24T02:41:51.980Z,100300.97
2022-11-24T02:44:58.241Z,100300.13
2022-11-24T02:47:59.696Z,100300.22
2022-11-24T02:51:01.169Z,100282.72
2022-11-24T02:54:02.621Z,100283.59
2022-11-24T02:57:04.176Z,100286.28
2022-11-24T03:00:06.201Z,100294.06
2022-11-24T03:03:07.768Z,100287.03
2022-11-24T03:06:09.332Z,100287.03
2022-11-24T03:09:11.070Z,100283.72
2022-11-24T03:12:12.549Z,100312.56
2022-11-24T03:15:14.028Z,100306.47
2022-11-24T03:18:15.509Z,100311.72
2022-11-24T03:21:16.972Z,100314.28
2022-11-24T03:24:18.433Z,100319.59
2022-11-24T03:27:20.012Z,100320.28
2022-11-24T03:30:21.507Z,100327.31
2022-11-24T03:33:22.964Z,100332.59
2022-11-24T03:36:24.511Z,100327.19
2022-11-24T03:39:25.954Z,100327.25
2022-11-24T03:42:27.383Z,100335.91
2022-11-24T03:48:50.527Z,100345.28
2022-11-24T03:51:51.977Z,100351.34
2022-11-24T03:54:53.766Z,100354.06
2022-11-24T03:57:55.209Z,100361.78
2022-11-24T04:00:57.415Z,100364.25
2022-11-24T04:03:58.895Z,100369.56
2022-11-24T04:07:00.360Z,100376.53
2022-11-24T04:10:02.031Z,100379.94
2022-11-24T04:13:05.649Z,100388.72
2022-11-24T04:16:07.441Z,100382.19
2022-11-24T04:19:08.911Z,100394.59
2022-11-24T04:22:10.336Z,100390.13
2022-11-24T04:25:11.934Z,100403.34
2022-11-24T04:28:13.421Z,100411.28
2022-11-24T04:31:14.928Z,100413.16
2022-11-24T04:34:16.370Z,100417.72
2022-11-24T04:37:17.806Z,100435.38
2022-11-24T04:40:19.957Z,100433.00
2022-11-24T04:43:21.363Z,100433.22
2022-11-24T04:46:22.803Z,100443.00
2022-11-24T04:49:24.272Z,100440.59
2022-11-24T04:52:26.370Z,100452.16
2022-11-24T04:55:27.812Z,100444.41
2022-11-24T04:58:29.212Z,100457.72
2022-11-24T05:01:30.672Z,100463.03
2022-11-24T05:04:32.462Z,100461.38
2022-11-24T05:07:34.237Z,100457.94
2022-11-24T05:10:35.694Z,100464.91
2022-11-24T05:13:37.105Z,100472.88
2022-11-24T05:16:38.613Z,100483.38
2022-11-24T05:19:40.088Z,100490.34
2022-11-24T05:22:41.534Z,100486.81
2022-11-24T05:25:47.487Z,100490.34
2022-11-24T05:28:49.339Z,100490.34
2022-11-24T05:31:50.889Z,100501.69
2022-11-24T05:34:52.406Z,100513.13
2022-11-24T05:37:53.847Z,100518.28
2022-11-24T05:40:59.469Z,100522.69
2022-11-24T05:44:00.879Z,100532.28
2022-11-24T05:47:02.404Z,100532.16
2022-11-24T05:50:04.505Z,100539.16
2022-11-24T05:53:08.964Z,100532.09
2022-11-24T05:56:10.379Z,100550.50
2022-11-24T05:59:11.827Z,100565.28
2022-11-24T06:02:13.359Z,100572.25
2022-11-24T06:05:15.014Z,100565.25
2022-11-24T06:08:16.439Z,100579.97
2022-11-24T06:11:17.827Z,100581.69
2022-11-24T06:14:19.290Z,100583.44
2022-11-24T06:17:20.728Z,100594.78
2022-11-24T06:20:27.029Z,100597.41
2022-11-24T06:23:31.897Z,100600.84
2022-11-24T06:26:33.376Z,100619.22
2022-11-24T06:29:34.807Z,100616.66
2022-11-24T06:32:36.267Z,100621.03
2022-11-24T06:35:37.663Z,100628.09
2022-11-24T06:38:39.132Z,100637.56
2022-11-24T06:41:40.569Z,100645.44
2022-11-24T06:44:42.052Z,100647.16
2022-11-24T06:47:43.511Z,100653.28
2022-11-24T06:50:46.020Z,100667.28
2022-11-24T06:53:47.535Z,100667.31
2022-11-24T06:56:49.047Z,100662.94
2022-11-24T06:59:50.535Z,100676.03
2022-11-24T07:02:52.120Z,100681.31
2022-11-24T07:05:57.837Z,100677.81
2022-11-24T07:08:59.342Z,100685.69
2022-11-24T07:12:00.782Z,100690.09
2022-11-24T07:15:02.289Z,100704.88
2022-11-24T07:18:03.828Z,100711.91
2022-11-24T07:21:05.548Z,100710.19
2022-11-24T07:24:07.223Z,100719.75
2022-11-24T07:27:08.654Z,100725.84
2022-11-24T07:30:10.439Z,100725.84
2022-11-24T07:33:11.873Z,100734.56
2022-11-24T07:36:13.307Z,100734.63
2022-11-24T07:39:14.713Z,100745.09
2022-11-24T07:42:16.306Z,100752.06
2022-11-24T07:45:17.802Z,100757.28
2022-11-24T07:48:19.206Z,100752.19
2022-11-24T07:51:20.741Z,100760.03
2022-11-24T07:54:22.197Z,100766.16
2022-11-24T07:57:23.635Z,100769.63
2022-11-24T08:00:25.112Z,100778.31
2022-11-24T08:03:26.578Z,100776.44
2022-11-24T08:06:37.436Z,100782.53
2022-11-24T08:09:40.981Z,100790.44
2022-11-24T08:12:43.884Z,100788.69
2022-11-24T08:15:45.552Z,100794.84
2022-11-24T08:18:51.975Z,100799.22
2022-11-24T08:21:53.436Z,100812.28
2022-11-24T08:24:54.925Z,100814.91
2022-11-24T08:27:56.387Z,100818.41
2022-11-24T08:31:06.739Z,100817.47
2022-11-24T08:34:08.201Z,100827.03
2022-11-24T08:37:09.592Z,100827.81
2022-11-24T08:40:11.951Z,100835.69
2022-11-24T08:43:32.034Z,100830.47
2022-11-24T08:46:33.605Z,100836.59
2022-11-24T08:49:35.137Z,100833.94
2022-11-24T08:52:36.581Z,100841.78
2022-11-24T08:55:38.091Z,100843.47
2022-11-24T08:58:40.385Z,100841.66
2022-11-24T09:01:41.940Z,100860.81
2022-11-24T09:04:43.433Z,100856.41
2022-11-24T09:07:44.969Z,100851.28
2022-11-24T09:10:46.471Z,100862.59
2022-11-24T09:13:47.983Z,100875.63
2022-11-24T09:16:49.581Z,100876.41
2022-11-24T09:19:51.048Z,100879.75
2022-11-24T09:22:52.482Z,100887.59
2022-11-24T09:25:53.894Z,100883.09
2022-11-24T09:28:56.452Z,100900.38
2022-11-24T09:32:00.808Z,100897.66
2022-11-24T09:35:06.821Z,100905.47
2022-11-24T09:38:08.287Z,100901.03
2022-11-24T09:41:35.302Z,100914.97
2022-11-24T09:44:50.098Z,100923.63
2022-11-24T09:48:03.491Z,100929.63
2022-11-24T09:51:05.741Z,100939.19
2022-11-24T09:54:17.864Z,100939.16
2022-11-24T09:57:23.600Z,100953.03
2022-11-24T10:00:25.072Z,100946.84
2022-11-24T10:03:34.366Z,100949.38
2022-11-24T10:07:04.768Z,100964.19
2022-11-24T10:10:24.469Z,100950.69
2022-11-24T10:13:44.676Z,100962.66
2022-11-24T10:17:15.176Z,100959.91
2022-11-24T10:20:27.059Z,100972.34
2022-11-24T10:23:56.536Z,100971.56
2022-11-24T10:27:08.581Z,100967.25
2022-11-24T10:30:21.871Z,100975.13
2022-11-24T10:33:30.145Z,100973.31
2022-11-24T10:36:45.548Z,100987.31
2022-11-24T10:40:00.657Z,100983.81
2022-11-24T10:43:02.224Z,100979.41
2022-11-24T10:46:15.170Z,100979.41
2022-11-24T10:49:22.226Z,100979.31
2022-11-24T10:52:25.003Z,100991.16
2022-11-24T10:55:26.494Z,100989.94
2022-11-24T10:58:38.788Z,100995.06
2022-11-24T11:01:40.268Z,101002.03
2022-11-24T11:04:41.742Z,100990.69
2022-11-24T11:07:43.190Z,100988.91
2022-11-24T11:10:45.356Z,100986.41
2022-11-24T11:13:48.558Z,100991.69
2022-11-24T11:16:55.284Z,100981.16
2022-11-24T11:20:02.860Z,100987.19
2022-11-24T11:23:16.208Z,100985.22
2022-11-24T11:26:23.751Z,100976.94
2022-11-24T11:36:19.768Z,100994.22
2022-11-24T11:39:36.329Z,100987.38
2022-11-24T11:43:03.788Z,100987.56
2022-11-24T11:46:12.407Z,100983.19
2022-11-24T11:49:14.083Z,100996.16
2022-11-24T11:52:32.417Z,100994.63
2022-11-24T11:55:46.595Z,100987.88
2022-11-24T11:59:44.770Z,100994.50
2022-11-24T12:03:13.536Z,101000.81
2022-11-24T12:06:27.338Z,101003.56
2022-11-24T12:10:01.159Z,101009.25
2022-11-24T12:13:36.201Z,101006.63
2022-11-24T12:16:45.407Z,101005.63
2022-11-24T12:20:13.857Z,101012.75
2022-11-24T12:23:37.090Z,101001.47
2022-11-24T12:26:59.103Z,101006.59
2022-11-24T12:30:31.324Z,100996.94
2022-11-24T12:33:35.766Z,100995.19
2022-11-24T12:37:11.169Z,101007.47
2022-11-24T12:40:43.664Z,101009.53
2022-11-24T12:43:51.879Z,101004.06
2022-11-24T12:46:59.275Z,101007.47
2022-11-24T12:50:15.767Z,101005.53
2022-11-24T12:53:23.743Z,101014.19
2022-11-24T12:56:38.692Z,101010.59
2022-11-24T12:59:48.325Z,101004.03
2022-11-24T13:03:16.064Z,101002.66
2022-11-24T13:06:28.083Z,101009.50
2022-11-24T13:09:29.579Z,101012.13
2022-11-24T13:12:31.067Z,101012.00
2022-11-24T13:19:20.103Z,101003.91
2022-11-24T13:22:25.761Z,101003.16
2022-11-24T13:25:30.613Z,101005.78
2022-11-24T13:29:25.014Z,101005.19
2022-11-24T13:32:33.019Z,101003.63
2022-11-24T13:35:34.574Z,101005.91
2022-11-24T13:38:45.259Z,101003.22
2022-11-24T13:41:49.720Z,101002.50
2022-11-24T13:44:54.898Z,101002.63
2022-11-24T13:47:56.360Z,100985.91
2022-11-24T13:51:00.814Z,100989.50
2022-11-24T13:54:02.481Z,100999.19
2022-11-24T13:57:37.983Z,100994.81
2022-11-24T14:01:02.322Z,100995.66
2022-11-24T14:04:32.528Z,100997.72
2022-11-24T14:07:34.734Z,100992.09
2022-11-24T14:10:37.560Z,100982.81
2022-11-24T14:13:38.990Z,100988.16
2022-11-24T14:16:40.480Z,100996.59
2022-11-24T14:19:44.164Z,100991.88
2022-11-24T14:22:45.704Z,100988.19
2022-11-24T14:25:49.232Z,100980.16
2022-11-24T14:28:51.295Z,100969.91
2022-11-24T14:31:56.638Z,100966.78
2022-11-24T14:34:58.223Z,100963.72
2022-11-24T14:38:01.924Z,100964.06
2022-11-24T14:41:25.193Z,100962.59
2022-11-24T14:44:34.976Z,100963.75
2022-11-24T14:47:44.859Z,100972.81
2022-11-24T14:50:46.485Z,100978.31
2022-11-24T14:53:53.900Z,100982.03
2022-11-24T14:57:04.156Z,100987.53
2022-11-24T15:00:28.579Z,100979.84
2022-11-24T15:03:30.157Z,100988.72
2022-11-24T15:06:31.669Z,100987.69
2022-11-24T15:09:42.032Z,100990.19
2022-11-24T15:12:51.038Z,100985.94
2022-11-24T15:16:03.448Z,100993.13
2022-11-24T15:19:05.235Z,100989.66
2022-11-24T15:22:28.091Z,100990.56
2022-11-24T15:25:32.206Z,100988.75
2022-11-24T15:28:33.708Z,100984.31
2022-11-24T15:31:35.159Z,100980.91
2022-11-24T15:34:36.831Z,100977.63
2022-11-24T15:37:38.404Z,100970.78
2022-11-24T15:40:42.091Z,100970.94
2022-11-24T15:43:43.514Z,100972.84
2022-11-24T15:46:45.128Z,100975.63
2022-11-24T15:49:46.603Z,100967.91
2022-11-24T15:52:48.683Z,100963.69
2022-11-24T15:55:50.405Z,100972.56
2022-11-24T15:58:53.335Z,100973.47
2022-11-24T16:01:54.875Z,100976.78
2022-11-24T16:04:56.379Z,100979.41
2022-11-24T16:07:58.055Z,100970.59
2022-11-24T16:10:59.576Z,100975.91
2022-11-24T16:14:01.041Z,100973.28
2022-11-24T16:17:02.895Z,100984.66
2022-11-24T16:20:04.911Z,100982.00
2022-11-24T16:23:06.421Z,100980.19
2022-11-24T16:26:07.898Z,100987.06
2022-11-24T16:29:09.340Z,100989.72
2022-11-24T16:32:10.775Z,101000.19
2022-11-24T16:35:12.244Z,100994.13
2022-11-24T16:38:18.703Z,100978.44
2022-11-24T16:41:20.312Z,100987.31
2022-11-24T16:44:21.704Z,100989.03
2022-11-24T16:47:23.394Z,100983.63
2022-11-24T16:50:24.851Z,100982.69
2022-11-24T16:53:26.340Z,100979.38
2022-11-24T16:56:28.948Z,100982.84
2022-11-24T16:59:30.343Z,100981.97
2022-11-24T17:02:33.351Z,100975.84
2022-11-24T17:05:34.830Z,100973.19
2022-11-24T17:08:37.668Z,100974.94
2022-11-24T17:11:39.147Z,100977.56
2022-11-24T17:14:40.650Z,100966.16
2022-11-24T17:18:01.395Z,100974.81
2022-11-24T17:21:08.004Z,100964.22
2022-11-24T17:24:11.150Z,100962.38
2022-11-24T17:27:12.569Z,100964.13
2022-11-24T17:30:14.210Z,100954.50
2022-11-24T17:33:15.603Z,100958.91
2022-11-24T17:36:17.331Z,100952.88
2022-11-24T17:39:23.364Z,100952.00
2022-11-24T17:42:26.250Z,100945.75
2022-11-24T17:45:28.894Z,100943.13
2022-11-24T17:48:31.200Z,100950.06
2022-11-24T17:51:32.691Z,100949.28
2022-11-24T17:54:49.473Z,100943.28
2022-11-24T17:57:50.955Z,100938.09
2022-11-24T18:00:53.141Z,100945.19
2022-11-24T18:03:54.599Z,100951.41
2022-11-24T18:06:56.002Z,100955.78
2022-11-24T18:09:57.497Z,100954.09
2022-11-24T18:12:58.914Z,100954.16
2022-11-24T18:16:05.596Z,100952.38
2022-11-24T18:19:09.383Z,100949.81
2022-11-24T18:22:11.403Z,100951.53
2022-11-24T18:25:12.896Z,100954.16
2022-11-24T18:28:14.348Z,100946.28
2022-11-24T18:31:16.769Z,100953.34
2022-11-24T18:34:18.198Z,100955.97
2022-11-24T18:37:19.638Z,100953.38
2022-11-24T18:40:21.136Z,100942.00
2022-11-24T18:43:24.346Z,100942.03
2022-11-24T18:46:25.810Z,100937.69
2022-11-24T18:49:27.720Z,100943.81
2022-11-24T18:52:29.180Z,100941.25
2022-11-24T18:55:30.574Z,100944.78
2022-11-24T18:58:34.457Z,100943.09
2022-11-24T19:01:36.268Z,100943.97
2022-11-24T19:04:37.949Z,100937.06
2022-11-24T19:07:39.561Z,100937.91
2022-11-24T19:10:41.642Z,100938.72
2022-11-24T19:13:43.046Z,100929.00
2022-11-24T19:16:45.371Z,100936.88
2022-11-24T19:19:47.160Z,100927.22
2022-11-24T19:22:48.558Z,100918.38
2022-11-24T19:25:49.947Z,100913.16
2022-11-24T19:28:51.408Z,100925.38
2022-11-24T19:31:54.252Z,100923.56
2022-11-24T19:34:55.719Z,100919.19
2022-11-24T19:37:57.192Z,100908.69
2022-11-24T19:41:07.692Z,100914.72
2022-11-24T19:44:11.212Z,100913.84
2022-11-24T19:47:23.398Z,100925.25
2022-11-24T19:50:24.852Z,100922.69
2022-11-24T19:53:26.406Z,100927.06
2022-11-24T19:56:30.628Z,100918.31
2022-11-24T19:59:32.007Z,100918.28
2022-11-24T20:02:33.482Z,100922.59
2022-11-24T20:05:34.935Z,100922.44
2022-11-24T20:08:37.380Z,100929.41
2022-11-24T20:11:39.615Z,100916.22
2022-11-24T20:14:41.082Z,100910.16
2022-11-24T20:17:42.481Z,100906.66
2022-11-24T20:20:43.868Z,100912.72
2022-11-24T20:23:51.850Z,100912.66
2022-11-24T20:26:56.483Z,100912.63
2022-11-24T20:29:57.883Z,100909.94
2022-11-24T20:32:59.682Z,100905.63
2022-11-24T20:36:06.408Z,100917.88
2022-11-24T20:39:13.002Z,100900.47
2022-11-24T20:42:14.510Z,100907.38
2022-11-24T20:45:16.038Z,100899.53
2022-11-24T20:48:17.462Z,100914.38
2022-11-24T20:51:24.385Z,100915.31
2022-11-24T20:54:25.892Z,100919.69
2022-11-24T20:57:27.349Z,100914.50
2022-11-24T21:00:28.771Z,100906.66
2022-11-24T21:03:30.255Z,100907.53
2022-11-24T21:06:31.754Z,100903.13
2022-11-24T21:09:33.163Z,100903.19
2022-11-24T21:12:34.543Z,100905.78
2022-11-24T21:15:35.999Z,100900.47
2022-11-24T21:18:37.447Z,100904.78
2022-11-24T21:21:40.055Z,100904.75
2022-11-24T21:24:41.451Z,100909.06
2022-11-24T21:27:43.143Z,100915.97
2022-11-24T21:30:44.570Z,100909.00
2022-11-24T21:33:51.133Z,100909.84
2022-11-24T21:36:52.534Z,100905.44
2022-11-24T21:39:53.936Z,100907.16
2022-11-24T21:42:57.996Z,100902.72
2022-11-24T21:46:04.122Z,100906.09
2022-11-24T21:49:05.614Z,100910.50
2022-11-24T21:52:07.054Z,100904.34
2022-11-24T21:55:08.740Z,100900.88
2022-11-24T21:58:10.208Z,100898.22
2022-11-24T22:01:11.818Z,100899.88
2022-11-24T22:04:13.397Z,100893.75
2022-11-24T22:07:14.895Z,100897.19
2022-11-24T22:10:16.765Z,100891.94
2022-11-24T22:13:18.963Z,100890.19
2022-11-24T22:16:24.828Z,100891.13
2022-11-24T22:19:26.335Z,100887.50
2022-11-24T22:22:27.769Z,100888.25
2022-11-24T22:25:29.175Z,100894.41
2022-11-24T22:28:32.063Z,100892.78
2022-11-24T22:31:33.665Z,100892.03
2022-11-24T22:34:35.465Z,100884.19
2022-11-24T22:37:37.122Z,100886.78
2022-11-24T22:40:38.511Z,100892.91
2022-11-24T22:43:41.603Z,100883.31
2022-11-24T22:46:43.058Z,100892.94
2022-11-24T22:49:44.503Z,100888.47
2022-11-24T22:52:45.907Z,100890.16
2022-11-24T22:55:47.393Z,100894.53
2022-11-24T22:58:49.350Z,100891.91
2022-11-24T23:01:50.840Z,100896.34
2022-11-24T23:04:52.251Z,100894.63
2022-11-24T23:07:53.760Z,100892.09
2022-11-24T23:11:03.263Z,100886.03
2022-11-24T23:14:07.134Z,100892.19
2022-11-24T23:17:08.629Z,100886.97
2022-11-24T23:20:10.796Z,100889.63
2022-11-24T23:23:12.252Z,100874.81
2022-11-24T23:26:16.979Z,100880.03
2022-11-24T23:29:18.379Z,100875.72
2022-11-24T23:32:19.796Z,100883.63
2022-11-24T23:35:21.273Z,100885.41
2022-11-24T23:38:26.200Z,100881.91
2022-11-24T23:41:29.615Z,100885.41
2022-11-24T23:44:31.015Z,100876.69
2022-11-24T23:47:32.469Z,100874.97
2022-11-24T23:50:35.078Z,100872.34
2022-11-24T23:53:36.648Z,100871.44
2022-11-24T23:56:38.278Z,100874.94
2022-11-24T23:59:39.715Z,100862.69
